Time;durP1;ratioP1;P1;durP2;ratioP2;P2;SDS_P1;SDS_P2;PMS_P1;PMS_P2;Temp;Humidity;BMP_temperature;BMP_pressure;BME280_temperature;BME280_humidity;BME280_pressure;Samples;Min_cycle;Max_cycle;Signal;HPM_P1;HPM_P2
2023/05/30 00:01:06;;;;;;;21.85;7.68;;;;;;;9.82;80.35;102536.75;5078263;28;20036;-50
2023/05/30 00:03:32;;;;;;;19.73;7.30;;;;;;;9.79;80.43;102528.97;5079158;28;20020;-47
2023/05/30 00:05:57;;;;;;;24.30;8.07;;;;;;;9.86;79.34;102537.06;5082782;28;20039;-49
2023/05/30 00:08:22;;;;;;;20.95;7.22;;;;;;;9.78;81.00;102532.84;5083137;28;20073;-49
2023/05/30 00:10:48;;;;;;;21.20;7.47;;;;;;;9.74;81.17;102537.22;5077204;28;20434;-50
2023/05/30 00:13:13;;;;;;;20.85;7.65;;;;;;;9.63;82.65;102536.28;5084926;28;20563;-50
2023/05/30 00:15:38;;;;;;;21.17;7.78;;;;;;;9.60;81.83;102534.03;5072810;28;20020;-50
2023/05/30 00:18:05;;;;;;;23.08;7.90;;;;;;;9.58;82.56;102538.97;5087323;28;20541;-47
2023/05/30 00:20:30;;;;;;;20.83;8.63;;;;;;;9.49;83.73;102539.44;5092020;28;20033;-50
2023/05/30 00:23:00;;;;;;;22.60;8.25;;;;;;;9.36;84.84;102545.31;5083662;28;20495;-52
2023/05/30 00:25:25;;;;;;;23.58;8.10;;;;;;;9.36;84.70;102537.03;5092101;28;20545;-49
2023/05/30 00:27:51;;;;;;;21.70;7.57;;;;;;;9.36;84.64;102545.31;5090250;28;20139;-47
2023/05/30 00:30:16;;;;;;;21.23;7.53;;;;;;;9.32;85.31;102547.75;5090662;28;20028;-49
2023/05/30 00:32:42;;;;;;;22.20;8.30;;;;;;;9.35;85.16;102543.69;5084009;28;20387;-47
2023/05/30 00:35:07;;;;;;;21.85;7.45;;;;;;;9.35;85.03;102546.44;5078364;28;20036;-48
2023/05/30 00:37:33;;;;;;;21.58;7.80;;;;;;;9.31;85.47;102543.31;5088057;28;20039;-49
2023/05/30 00:39:58;;;;;;;21.13;7.97;;;;;;;9.30;85.80;102538.06;5091280;28;20033;-50
2023/05/30 00:42:26;;;;;;;22.67;8.27;;;;;;;9.30;86.15;102540.81;5091723;28;20044;-48
2023/05/30 00:44:51;;;;;;;20.42;7.88;;;;;;;9.28;86.04;102543.00;5088209;28;20476;-51
2023/05/30 00:47:17;;;;;;;20.83;7.43;;;;;;;9.20;86.68;102536.84;5077386;28;20105;-51
2023/05/30 00:49:43;;;;;;;21.67;8.10;;;;;;;9.10;88.10;102539.47;5090462;28;20024;-52
2023/05/30 00:52:08;;;;;;;20.58;7.80;;;;;;;9.06;88.09;102543.84;5079452;28;20503;-46
2023/05/30 00:54:34;;;;;;;19.85;8.50;;;;;;;9.05;88.34;102555.97;5090683;28;20119;-50
2023/05/30 00:56:59;;;;;;;22.15;7.78;;;;;;;9.13;87.81;102552.75;5086876;28;20054;-45
2023/05/30 00:59:25;;;;;;;19.77;7.68;;;;;;;9.12;87.59;102550.25;5074317;28;20020;-49
2023/05/30 01:01:50;;;;;;;20.88;7.63;;;;;;;9.07;88.42;102553.75;5078556;28;20051;-48
2023/05/30 01:04:15;;;;;;;21.02;7.40;;;;;;;9.07;88.04;102558.47;5091489;28;20111;-47
2023/05/30 01:06:41;;;;;;;21.50;8.20;;;;;;;9.01;88.52;102557.53;5091027;28;20462;-50
2023/05/30 01:09:07;;;;;;;21.77;8.23;;;;;;;9.05;88.41;102565.06;5088995;28;20032;-47
2023/05/30 01:11:41;;;;;;;21.88;8.05;;;;;;;8.99;88.96;102560.56;5075738;28;20039;-48
2023/05/30 01:14:17;;;;;;;23.23;8.27;;;;;;;8.93;89.28;102556.03;5076826;28;20148;-47
2023/05/30 01:17:06;;;;;;;22.23;7.82;;;;;;;8.89;89.84;102555.72;5072707;28;20021;-51
2023/05/30 01:19:54;;;;;;;21.92;8.00;;;;;;;8.83;89.94;102561.44;5090965;28;20040;-47
2023/05/30 01:22:38;;;;;;;19.83;7.70;;;;;;;8.85;90.21;102557.31;5084723;28;20029;-49
2023/05/30 01:25:26;;;;;;;20.38;7.95;;;;;;;8.87;89.82;102560.69;5073714;28;20503;-47
2023/05/30 01:28:01;;;;;;;23.63;8.75;;;;;;;8.87;90.15;102563.44;5082970;28;20450;-47
2023/05/30 01:30:29;;;;;;;19.50;7.65;;;;;;;8.83;90.52;102550.41;5086053;28;20498;-48
2023/05/30 01:32:55;;;;;;;20.73;8.38;;;;;;;8.83;89.64;102553.16;5081587;28;20053;-48
2023/05/30 01:35:24;;;;;;;23.73;7.82;;;;;;;8.82;90.27;102557.81;5077278;28;20056;-48
2023/05/30 01:37:49;;;;;;;22.15;8.15;;;;;;;8.76;90.35;102549.72;5090809;28;20422;-48
2023/05/30 01:40:22;;;;;;;22.00;7.78;;;;;;;8.75;90.24;102557.16;5086592;28;20028;-46
2023/05/30 01:43:04;;;;;;;21.77;8.18;;;;;;;8.76;90.53;102556.06;5071111;28;20116;-48
2023/05/30 01:46:01;;;;;;;22.92;9.05;;;;;;;8.73;90.05;102554.66;5074529;28;20041;-46
2023/05/30 01:48:45;;;;;;;24.63;8.27;;;;;;;8.71;90.73;102564.25;5090274;28;20040;-47
2023/05/30 01:51:14;;;;;;;25.30;8.60;;;;;;;8.62;91.34;102566.63;5075214;28;20047;-47
2023/05/30 01:53:46;;;;;;;25.92;8.57;;;;;;;8.55;92.08;102566.78;5078726;28;20511;-51
2023/05/30 01:56:13;;;;;;;26.23;8.65;;;;;;;8.51;92.15;102571.09;5084912;28;20128;-47
2023/05/30 01:58:39;;;;;;;21.38;8.80;;;;;;;8.54;92.42;102569.78;5088654;28;20040;-48
2023/05/30 02:01:07;;;;;;;21.45;7.88;;;;;;;8.48;92.37;102568.00;5083292;28;20115;-49
2023/05/30 02:03:33;;;;;;;22.33;8.10;;;;;;;8.47;92.56;102575.47;5074401;28;20400;-48
2023/05/30 02:06:00;;;;;;;23.13;8.52;;;;;;;8.47;93.38;102588.38;5074155;28;20027;-47
2023/05/30 02:08:26;;;;;;;23.30;8.48;;;;;;;8.45;92.36;102580.34;5075070;28;20028;-46
2023/05/30 02:10:51;;;;;;;22.98;8.57;;;;;;;8.50;92.10;102587.91;5074519;28;20036;-46
2023/05/30 02:13:16;;;;;;;24.15;8.98;;;;;;;8.40;93.35;102585.81;5081824;28;20525;-46
2023/05/30 02:15:42;;;;;;;24.05;8.82;;;;;;;8.36;93.40;102584.59;5076916;28;20027;-46
2023/05/30 02:18:08;;;;;;;21.48;7.80;;;;;;;8.34;93.24;102586.78;5093750;28;20044;-48
2023/05/30 02:20:33;;;;;;;22.35;8.18;;;;;;;8.28;93.15;102589.44;5094096;28;20559;-48
2023/05/30 02:22:59;;;;;;;22.92;9.07;;;;;;;8.33;93.67;102583.19;5085354;28;20147;-46
2023/05/30 02:25:24;;;;;;;22.15;8.93;;;;;;;8.37;93.32;102589.03;5092960;28;20024;-45
2023/05/30 02:27:50;;;;;;;21.63;8.85;;;;;;;8.32;94.50;102598.06;5089599;28;20119;-48
2023/05/30 02:30:16;;;;;;;22.40;8.80;;;;;;;8.30;94.07;102594.72;5090514;28;20040;-46
2023/05/30 02:32:42;;;;;;;19.23;8.15;;;;;;;8.30;94.41;102586.44;5073705;28;20029;-47
2023/05/30 02:35:08;;;;;;;22.00;8.60;;;;;;;8.29;94.63;102595.78;5086784;28;20028;-48
2023/05/30 02:37:33;;;;;;;23.63;8.88;;;;;;;8.21;94.96;102586.03;5088516;28;20437;-48
2023/05/30 02:39:59;;;;;;;21.63;8.85;;;;;;;8.15;95.14;102591.69;5077535;28;20528;-47
2023/05/30 02:42:24;;;;;;;24.85;9.48;;;;;;;8.15;95.75;102586.16;5073571;28;20088;-49
2023/05/30 02:44:49;;;;;;;20.42;8.23;;;;;;;8.14;95.63;102585.31;5074591;28;20020;-45
2023/05/30 02:47:14;;;;;;;21.55;8.43;;;;;;;8.20;94.75;102597.28;5077672;28;20043;-46
2023/05/30 02:49:40;;;;;;;23.13;9.02;;;;;;;8.18;95.01;102603.03;5079681;28;20043;-47
2023/05/30 02:52:06;;;;;;;24.05;8.45;;;;;;;8.18;95.06;102594.78;5089175;28;20081;-45
2023/05/30 02:54:31;;;;;;;24.80;9.32;;;;;;;8.15;95.97;102592.50;5093658;28;20111;-46
2023/05/30 02:56:57;;;;;;;21.65;8.40;;;;;;;8.19;94.93;102592.84;5081467;28;20044;-48
2023/05/30 02:59:22;;;;;;;21.75;9.07;;;;;;;8.19;95.23;102588.19;5072921;28;20036;-45
2023/05/30 03:01:47;;;;;;;24.15;9.60;;;;;;;8.12;96.61;102582.00;5075967;28;20253;-46
2023/05/30 03:04:13;;;;;;;22.13;9.02;;;;;;;8.08;96.02;102583.56;5085959;28;20040;-47
2023/05/30 03:06:38;;;;;;;22.33;8.68;;;;;;;8.12;97.04;102588.31;5072813;28;20036;-48
2023/05/30 03:09:04;;;;;;;30.27;9.75;;;;;;;8.13;97.31;102586.38;5078055;28;20033;-49
2023/05/30 03:11:29;;;;;;;24.40;10.07;;;;;;;8.09;97.01;102590.75;5083812;28;20054;-47
2023/05/30 03:13:54;;;;;;;27.00;10.23;;;;;;;8.09;96.45;102591.56;5087150;28;20370;-46
2023/05/30 03:16:20;;;;;;;21.65;9.27;;;;;;;8.15;96.73;102588.91;5080795;28;20020;-49
2023/05/30 03:18:45;;;;;;;21.75;9.18;;;;;;;8.16;97.02;102590.59;5091249;28;20037;-46
2023/05/30 03:21:11;;;;;;;23.65;9.07;;;;;;;8.19;96.67;102598.34;5092879;28;20055;-46
2023/05/30 03:23:37;;;;;;;23.65;9.57;;;;;;;8.18;96.76;102602.19;5077982;28;20028;-47
2023/05/30 03:26:03;;;;;;;23.35;9.43;;;;;;;8.10;97.64;102597.94;5090342;28;20115;-46
2023/05/30 03:28:29;;;;;;;21.08;9.77;;;;;;;8.12;97.89;102609.56;5088563;28;20035;-47
2023/05/30 03:30:56;;;;;;;22.20;10.07;;;;;;;8.07;98.68;102609.44;5085891;28;20028;-47
2023/05/30 03:33:22;;;;;;;23.38;9.25;;;;;;;8.04;98.70;102607.16;5086505;28;20024;-50
2023/05/30 03:35:48;;;;;;;24.88;9.57;;;;;;;8.09;98.14;102613.63;5076295;28;20024;-45
2023/05/30 03:38:13;;;;;;;22.85;9.20;;;;;;;8.18;97.44;102622.34;5076335;28;20502;-46
2023/05/30 03:40:38;;;;;;;21.77;9.27;;;;;;;8.22;97.38;102618.00;5091712;28;20421;-47
2023/05/30 03:43:03;;;;;;;27.58;10.45;;;;;;;8.21;97.69;102621.00;5080816;28;20081;-46
2023/05/30 03:45:29;;;;;;;26.02;9.98;;;;;;;8.28;97.63;102614.28;5089613;28;20436;-48
2023/05/30 03:47:54;;;;;;;25.73;9.55;;;;;;;8.31;96.91;102623.97;5079829;28;20054;-46
2023/05/30 03:50:19;;;;;;;23.35;10.20;;;;;;;8.28;97.27;102618.94;5076087;28;20364;-51
2023/05/30 03:52:45;;;;;;;22.00;9.63;;;;;;;8.29;97.64;102626.13;5076060;28;20344;-50
2023/05/30 03:55:10;;;;;;;23.52;9.68;;;;;;;8.41;96.86;102629.66;5072046;28;20387;-54
2023/05/30 03:57:36;;;;;;;25.88;9.63;;;;;;;8.43;96.85;102634.94;5075848;28;20486;-52
2023/05/30 04:00:01;;;;;;;22.88;9.43;;;;;;;8.42;96.63;102624.97;5074873;28;20490;-51
2023/05/30 04:02:26;;;;;;;22.85;9.50;;;;;;;8.39;97.06;102631.84;5082101;28;20158;-52
2023/05/30 04:04:53;;;;;;;21.08;9.57;;;;;;;8.45;96.39;102624.50;5086783;28;20107;-52
2023/05/30 04:07:18;;;;;;;25.52;10.30;;;;;;;8.52;96.38;102627.13;5092326;28;20107;-50
2023/05/30 04:09:43;;;;;;;21.52;9.75;;;;;;;8.56;96.14;102629.16;5079148;28;20103;-48
2023/05/30 04:12:09;;;;;;;27.80;10.82;;;;;;;8.56;96.06;102629.16;5087983;28;20028;-51
2023/05/30 04:14:34;;;;;;;25.48;10.70;;;;;;;8.58;95.52;102629.75;5082716;28;20086;-52
2023/05/30 04:17:00;;;;;;;22.58;9.73;;;;;;;8.64;95.76;102625.16;5084606;28;20076;-52
2023/05/30 04:19:25;;;;;;;22.95;10.13;;;;;;;8.68;96.00;102626.31;5089615;28;20044;-50
2023/05/30 04:21:51;;;;;;;22.52;9.90;;;;;;;8.68;95.69;102622.72;5076844;28;20113;-52
2023/05/30 04:24:16;;;;;;;25.25;11.05;;;;;;;8.75;95.53;102628.91;5082130;28;20502;-52
2023/05/30 04:26:41;;;;;;;21.73;9.55;;;;;;;8.68;96.11;102637.34;5061634;28;20031;-52
2023/05/30 04:29:08;;;;;;;24.35;10.27;;;;;;;8.70;96.01;102628.81;5077080;28;20062;-51
2023/05/30 04:31:33;;;;;;;25.17;9.90;;;;;;;8.70;96.21;102626.91;5083329;28;20077;-49
2023/05/30 04:33:59;;;;;;;24.52;9.85;;;;;;;8.79;95.81;102637.53;5080446;28;20040;-49
2023/05/30 04:36:25;;;;;;;24.58;10.23;;;;;;;8.80;95.78;102626.22;5082567;28;20097;-49
2023/05/30 04:38:52;;;;;;;23.48;10.70;;;;;;;8.90;95.58;102623.63;5090077;28;20028;-50
2023/05/30 04:41:24;;;;;;;25.92;10.80;;;;;;;9.00;94.80;102625.75;5076328;28;20099;-51
2023/05/30 04:43:57;;;;;;;26.52;10.02;;;;;;;9.09;94.43;102623.38;5091633;28;20127;-50
2023/05/30 04:46:23;;;;;;;24.55;10.50;;;;;;;9.18;93.92;102632.06;5090905;28;20514;-48
2023/05/30 04:48:53;;;;;;;21.10;9.82;;;;;;;9.21;93.95;102620.50;5078481;28;20100;-47
2023/05/30 04:51:20;;;;;;;23.20;10.40;;;;;;;9.27;94.22;102619.50;5091759;28;20037;-51
2023/05/30 04:53:46;;;;;;;24.25;10.32;;;;;;;9.31;93.88;102620.66;5088659;28;20085;-48
2023/05/30 04:56:11;;;;;;;20.08;9.52;;;;;;;9.44;92.79;102621.41;5083675;28;20060;-51
2023/05/30 04:58:36;;;;;;;23.67;10.27;;;;;;;9.45;92.40;102620.31;5084288;28;20075;-52
2023/05/30 05:01:02;;;;;;;22.25;10.25;;;;;;;9.39;93.06;102616.63;5080075;28;20093;-47
2023/05/30 05:03:27;;;;;;;24.88;10.50;;;;;;;9.32;93.85;102618.75;5089504;28;20035;-52
2023/05/30 05:05:52;;;;;;;26.30;11.15;;;;;;;9.40;93.57;102623.84;5083198;28;20030;-51
2023/05/30 05:08:18;;;;;;;24.30;10.70;;;;;;;9.42;93.55;102618.03;5078172;28;20108;-50
2023/05/30 05:10:43;;;;;;;22.08;10.02;;;;;;;9.52;92.19;102615.44;5085337;28;20028;-48
2023/05/30 05:13:08;;;;;;;25.63;10.48;;;;;;;9.60;92.09;102620.50;5085973;28;20065;-47
2023/05/30 05:15:33;;;;;;;24.70;10.32;;;;;;;9.64;91.72;102618.06;5084640;28;20440;-47
2023/05/30 05:17:59;;;;;;;23.20;10.60;;;;;;;9.68;91.69;102613.72;5088651;28;20047;-48
2023/05/30 05:20:24;;;;;;;26.75;10.60;;;;;;;9.73;91.60;102621.22;5083582;28;20039;-50
2023/05/30 05:22:50;;;;;;;23.38;10.60;;;;;;;9.78;91.35;102619.38;5086513;28;20198;-48
2023/05/30 05:25:16;;;;;;;24.98;10.55;;;;;;;9.83;90.94;102613.88;5085756;28;20032;-49
2023/05/30 05:27:41;;;;;;;21.70;10.35;;;;;;;9.84;90.82;102610.03;5074750;28;20027;-51
2023/05/30 05:30:08;;;;;;;24.65;10.50;;;;;;;10.02;90.31;102621.03;5081273;28;20107;-50
2023/05/30 05:32:36;;;;;;;25.75;10.95;;;;;;;10.12;89.91;102624.72;5077601;28;20128;-48
2023/05/30 05:35:05;;;;;;;24.85;10.65;;;;;;;10.17;88.80;102631.44;5072683;28;20039;-49
2023/05/30 05:37:30;;;;;;;24.00;10.30;;;;;;;10.21;88.67;102624.25;5076367;28;20055;-49
2023/05/30 05:39:55;;;;;;;24.70;11.00;;;;;;;10.09;88.75;102627.19;5074600;28;20024;-46
2023/05/30 05:42:21;;;;;;;23.40;10.30;;;;;;;10.12;89.66;102629.44;5080834;28;20027;-47
2023/05/30 05:44:46;;;;;;;23.05;10.63;;;;;;;10.06;89.57;102631.31;5093291;28;20518;-49
2023/05/30 05:47:11;;;;;;;22.80;10.80;;;;;;;10.17;89.13;102629.47;5075992;28;20025;-48
2023/05/30 05:49:36;;;;;;;24.33;11.60;;;;;;;10.16;89.25;102622.28;5080323;28;20496;-48
2023/05/30 05:52:02;;;;;;;24.02;11.43;;;;;;;10.17;88.88;102623.13;5081417;28;20048;-49
2023/05/30 05:54:27;;;;;;;24.55;10.65;;;;;;;10.32;88.49;102628.81;5078467;28;20364;-47
2023/05/30 05:56:52;;;;;;;22.02;10.98;;;;;;;10.40;88.01;102631.13;5074215;28;20028;-46
2023/05/30 05:59:18;;;;;;;22.90;11.00;;;;;;;10.43;87.71;102629.81;5083553;28;20024;-49
2023/05/30 06:01:43;;;;;;;24.80;11.35;;;;;;;10.49;87.75;102633.44;5074629;28;20046;-47
2023/05/30 06:04:11;;;;;;;23.40;11.05;;;;;;;10.52;87.18;102633.78;5082105;28;20562;-52
2023/05/30 06:06:36;;;;;;;25.15;10.52;;;;;;;10.44;87.17;102634.22;5080383;28;20033;-51
2023/05/30 06:09:01;;;;;;;22.73;11.43;;;;;;;10.49;86.79;102641.72;5093383;28;20096;-49
2023/05/30 06:11:27;;;;;;;28.27;11.00;;;;;;;10.60;86.02;102632.44;5088811;28;20020;-49
2023/05/30 06:13:52;;;;;;;22.42;10.93;;;;;;;10.73;85.70;102622.84;5086156;28;20407;-49
2023/05/30 06:16:17;;;;;;;21.25;10.93;;;;;;;10.89;85.38;102632.13;5082389;28;20067;-51
2023/05/30 06:18:42;;;;;;;23.67;10.85;;;;;;;11.07;84.37;102625.38;5094027;28;20127;-52
2023/05/30 06:21:10;;;;;;;24.23;11.05;;;;;;;11.20;82.93;102624.88;5086165;28;20025;-48
2023/05/30 06:23:35;;;;;;;23.17;10.57;;;;;;;11.34;81.24;102633.56;5092163;28;20047;-51
2023/05/30 06:26:00;;;;;;;22.63;11.07;;;;;;;11.32;79.24;102632.16;5082819;28;20067;-47
2023/05/30 06:28:26;;;;;;;21.67;11.25;;;;;;;11.14;79.28;102634.28;5093452;28;20115;-53
2023/05/30 06:30:51;;;;;;;21.23;10.65;;;;;;;11.01;80.16;102643.88;5080128;28;20403;-51
2023/05/30 06:33:17;;;;;;;24.90;10.90;;;;;;;11.12;79.42;102641.19;5090050;28;20084;-48
2023/05/30 06:35:42;;;;;;;22.88;10.73;;;;;;;11.21;78.65;102639.59;5093635;28;20024;-47
2023/05/30 06:38:07;;;;;;;22.88;10.43;;;;;;;11.15;78.81;102632.31;5080562;28;20588;-50
2023/05/30 06:40:33;;;;;;;20.33;9.93;;;;;;;11.27;79.37;102629.38;5090506;28;20028;-51
2023/05/30 06:42:58;;;;;;;23.17;10.35;;;;;;;11.39;77.59;102633.59;5081963;28;20471;-50
2023/05/30 06:45:23;;;;;;;23.50;11.20;;;;;;;11.24;77.31;102650.16;5076827;28;20028;-47
2023/05/30 06:47:49;;;;;;;22.05;11.20;;;;;;;11.23;77.31;102649.28;5077991;28;20499;-50
2023/05/30 06:50:14;;;;;;;22.95;10.38;;;;;;;11.27;78.06;102646.81;5092598;28;20566;-46
2023/05/30 06:52:39;;;;;;;21.52;10.50;;;;;;;11.37;76.82;102648.84;5075959;28;20032;-48
2023/05/30 06:55:05;;;;;;;23.30;10.85;;;;;;;11.48;77.03;102638.63;5079854;28;20038;-49
2023/05/30 06:57:30;;;;;;;20.55;10.65;;;;;;;11.51;76.41;102649.19;5086127;28;20031;-49
2023/05/30 06:59:56;;;;;;;21.95;10.68;;;;;;;11.65;76.02;102649.56;5089439;28;20411;-50
2023/05/30 07:02:21;;;;;;;20.52;10.77;;;;;;;11.84;75.71;102649.91;5083234;28;20037;-47
2023/05/30 07:04:47;;;;;;;20.60;10.80;;;;;;;11.83;75.33;102651.84;5072053;28;20025;-49
2023/05/30 07:07:12;;;;;;;21.63;10.10;;;;;;;11.96;75.08;102655.22;5086763;28;20089;-49
2023/05/30 07:09:37;;;;;;;22.27;10.82;;;;;;;12.07;74.18;102656.13;5091937;28;20094;-50
2023/05/30 07:12:03;;;;;;;22.80;11.00;;;;;;;12.16;73.49;102651.72;5092156;28;20089;-47
2023/05/30 07:14:28;;;;;;;21.65;11.32;;;;;;;12.17;72.78;102647.84;5084237;28;20036;-47
2023/05/30 07:16:53;;;;;;;21.10;10.68;;;;;;;12.32;72.78;102653.44;5070194;28;20024;-50
2023/05/30 07:19:19;;;;;;;22.33;10.55;;;;;;;12.52;72.20;102656.50;5071578;28;20045;-47
2023/05/30 07:21:44;;;;;;;23.10;10.70;;;;;;;12.49;70.91;102663.44;5071612;28;20128;-47
2023/05/30 07:24:09;;;;;;;21.00;10.45;;;;;;;12.64;72.07;102665.44;5071680;28;20058;-48
2023/05/30 07:26:35;;;;;;;22.75;10.00;;;;;;;12.73;71.15;102665.72;5086474;28;20337;-50
2023/05/30 07:29:01;;;;;;;22.83;10.30;;;;;;;12.71;70.55;102656.81;5091538;28;20047;-47
2023/05/30 07:31:27;;;;;;;20.45;10.27;;;;;;;12.75;70.27;102667.09;5106839;28;20055;-46
2023/05/30 07:33:52;;;;;;;20.75;9.57;;;;;;;12.75;69.83;102667.09;5094056;28;20031;-47
2023/05/30 07:36:18;;;;;;;23.50;10.05;;;;;;;12.74;69.79;102668.22;5081784;28;20040;-50
2023/05/30 07:38:43;;;;;;;22.45;10.52;;;;;;;12.58;70.15;102672.91;5088088;28;20355;-48
2023/05/30 07:41:08;;;;;;;20.48;9.93;;;;;;;12.62;71.37;102668.50;5089651;28;20027;-51
2023/05/30 07:43:33;;;;;;;22.15;10.40;;;;;;;12.67;70.58;102666.81;5090578;28;20095;-49
2023/05/30 07:45:59;;;;;;;22.67;10.77;;;;;;;12.62;70.40;102662.09;5091605;28;20032;-47
2023/05/30 07:48:24;;;;;;;21.90;10.90;;;;;;;12.56;69.93;102669.59;5091527;28;20108;-47
2023/05/30 07:50:50;;;;;;;22.23;10.70;;;;;;;12.68;69.93;102665.69;5091255;28;20093;-48
2023/05/30 07:53:15;;;;;;;24.73;11.95;;;;;;;12.59;69.58;102669.03;5090908;28;20024;-48
2023/05/30 07:55:40;;;;;;;22.30;11.27;;;;;;;12.61;69.84;102658.50;5099560;28;20033;-49
2023/05/30 07:58:05;;;;;;;20.90;11.10;;;;;;;12.66;69.79;102668.75;5110491;28;20103;-50
2023/05/30 08:00:31;;;;;;;21.10;10.75;;;;;;;12.69;69.50;102659.91;5111153;28;20031;-48
2023/05/30 08:02:56;;;;;;;25.13;11.13;;;;;;;12.68;69.02;102657.38;5111474;28;20027;-49
2023/05/30 08:05:21;;;;;;;21.15;10.77;;;;;;;12.77;69.06;102664.03;5111266;28;20039;-49
2023/05/30 08:07:47;;;;;;;22.85;11.57;;;;;;;12.82;69.01;102657.66;5111482;28;20062;-51
2023/05/30 08:10:12;;;;;;;21.80;10.73;;;;;;;12.70;69.64;102653.22;5111133;28;20496;-52
2023/05/30 08:12:38;;;;;;;23.50;11.00;;;;;;;12.82;69.54;102652.97;5111450;28;20043;-49
2023/05/30 08:15:03;;;;;;;22.55;10.82;;;;;;;12.76;69.06;102652.13;5111487;28;20666;-49
2023/05/30 08:17:29;;;;;;;23.20;10.60;;;;;;;12.96;68.86;102656.00;5108556;28;20028;-50
2023/05/30 08:19:55;;;;;;;22.08;10.20;;;;;;;13.23;67.97;102647.34;5091030;28;20020;-49
2023/05/30 08:22:23;;;;;;;21.65;11.02;;;;;;;13.28;66.97;102652.06;5090940;28;20035;-48
2023/05/30 08:24:50;;;;;;;20.23;10.35;;;;;;;13.35;67.49;102640.66;5091261;28;20532;-48
2023/05/30 08:27:16;;;;;;;21.05;10.63;;;;;;;13.34;67.09;102639.00;5090986;28;20028;-50
2023/05/30 08:29:42;;;;;;;21.10;10.88;;;;;;;13.44;66.29;102643.75;5091077;28;20027;-48
2023/05/30 08:32:07;;;;;;;21.98;10.68;;;;;;;13.63;65.94;102641.19;5090103;28;20103;-47
2023/05/30 08:34:33;;;;;;;20.77;10.77;;;;;;;13.60;66.18;102642.59;5091287;28;20115;-51
2023/05/30 08:36:58;;;;;;;20.50;11.25;;;;;;;13.54;65.51;102643.72;5091072;28;20034;-47
2023/05/30 08:39:23;;;;;;;22.50;10.98;;;;;;;13.47;65.54;102637.59;5089512;28;20081;-48
2023/05/30 08:41:49;;;;;;;22.83;10.93;;;;;;;13.40;66.62;102633.19;5091119;28;20062;-51
2023/05/30 08:44:14;;;;;;;23.10;11.45;;;;;;;13.39;66.00;102642.63;5091105;28;20032;-50
2023/05/30 08:46:43;;;;;;;21.63;10.50;;;;;;;13.51;65.19;102635.94;5090852;28;20100;-51
2023/05/30 08:49:12;;;;;;;21.38;11.15;;;;;;;13.60;65.37;102631.47;5091038;28;20060;-46
2023/05/30 08:51:41;;;;;;;21.63;10.85;;;;;;;13.59;65.66;102638.13;5090893;28;20488;-47
2023/05/30 08:54:12;;;;;;;24.63;11.02;;;;;;;13.60;65.15;102639.00;5090987;28;20089;-47
2023/05/30 08:56:42;;;;;;;21.92;11.35;;;;;;;13.64;64.62;102626.16;5090740;28;20024;-48
2023/05/30 08:59:09;;;;;;;22.83;11.43;;;;;;;13.76;64.12;102621.13;5090862;28;20028;-48
2023/05/30 09:01:37;;;;;;;22.77;11.73;;;;;;;14.07;64.41;102623.75;5090423;28;20099;-50
2023/05/30 09:04:06;;;;;;;24.00;11.32;;;;;;;14.26;62.97;102617.53;5090746;28;20114;-50
2023/05/30 09:06:35;;;;;;;21.17;10.70;;;;;;;14.41;62.69;102622.16;5090631;28;20047;-49
2023/05/30 09:09:01;;;;;;;22.13;11.50;;;;;;;14.53;62.36;102613.44;5090762;28;20035;-49
2023/05/30 09:11:27;;;;;;;21.38;11.27;;;;;;;14.68;62.40;102607.78;5094651;28;20027;-50
2023/05/30 09:13:53;;;;;;;21.45;11.38;;;;;;;14.71;60.95;102614.72;5094781;28;20047;-50
2023/05/30 09:16:18;;;;;;;22.13;11.55;;;;;;;14.73;61.37;102626.41;5094690;28;20020;-47
2023/05/30 09:18:43;;;;;;;21.35;11.65;;;;;;;14.76;61.78;102609.94;5094645;28;20155;-50
2023/05/30 09:21:09;;;;;;;24.85;12.57;;;;;;;14.86;61.56;102613.75;5094854;28;20035;-47
2023/05/30 09:23:36;;;;;;;21.38;11.73;;;;;;;14.94;60.57;102608.41;5094945;28;20428;-50
2023/05/30 09:26:04;;;;;;;24.02;12.52;;;;;;;14.85;60.49;102617.66;5094743;28;20032;-48
2023/05/30 09:28:31;;;;;;;24.35;11.88;;;;;;;14.73;61.28;102613.31;5094236;28;20072;-49
2023/05/30 09:30:58;;;;;;;22.70;11.60;;;;;;;14.77;60.88;102608.00;5081147;28;20020;-47
2023/05/30 09:33:40;;;;;;;21.95;12.07;;;;;;;15.00;60.23;102608.34;5085193;28;20123;-47
2023/05/30 09:36:07;;;;;;;25.05;11.93;;;;;;;15.15;59.76;102601.78;5089985;28;20028;-48
2023/05/30 09:38:33;;;;;;;24.23;12.30;;;;;;;15.25;59.01;102591.38;5082768;28;20037;-49
2023/05/30 09:41:02;;;;;;;25.08;11.55;;;;;;;15.50;59.28;102594.13;5074375;28;20522;-49
2023/05/30 09:43:35;;;;;;;22.20;11.80;;;;;;;15.58;58.19;102590.72;5085150;28;20436;-49
2023/05/30 09:46:03;;;;;;;22.70;11.90;;;;;;;15.64;58.13;102594.25;5075980;28;20033;-52
2023/05/30 09:48:28;;;;;;;25.92;12.15;;;;;;;15.71;57.64;102597.53;5082700;28;20032;-50
2023/05/30 09:50:57;;;;;;;24.75;11.93;;;;;;;15.67;58.31;102586.13;5075069;28;20020;-47
2023/05/30 09:53:22;;;;;;;23.67;11.68;;;;;;;15.51;57.97;102593.84;5075550;28;20781;-50
2023/05/30 09:55:48;;;;;;;23.85;12.18;;;;;;;15.66;57.67;102590.03;5072867;28;20157;-50
2023/05/30 09:58:20;;;;;;;24.92;11.23;;;;;;;15.84;57.67;102593.19;5072819;28;20031;-49
2023/05/30 10:00:53;;;;;;;21.27;11.80;;;;;;;15.83;57.83;102591.50;5075469;28;20028;-49
2023/05/30 10:03:39;;;;;;;22.63;11.70;;;;;;;15.92;57.84;102589.72;5092938;28;20115;-49
2023/05/30 10:06:15;;;;;;;22.98;12.15;;;;;;;16.03;57.33;102585.69;5093568;28;20137;-50
2023/05/30 10:08:43;;;;;;;23.55;11.90;;;;;;;16.23;56.86;102580.91;5093587;28;20063;-47
2023/05/30 10:11:09;;;;;;;23.77;11.88;;;;;;;16.27;55.08;102589.53;5087330;28;20028;-51
2023/05/30 10:13:36;;;;;;;22.20;11.63;;;;;;;16.32;55.32;102575.47;5082423;28;20422;-50
2023/05/30 10:16:02;;;;;;;22.73;11.32;;;;;;;16.41;55.91;102575.63;5079984;28;20024;-49
2023/05/30 10:18:31;;;;;;;23.65;11.93;;;;;;;16.43;55.33;102576.16;5080562;28;20218;-49
2023/05/30 10:20:59;;;;;;;20.92;11.18;;;;;;;16.61;55.01;102574.44;5087319;28;20020;-52
2023/05/30 10:23:25;;;;;;;23.73;11.52;;;;;;;16.71;54.93;102573.44;5093191;28;20038;-49
2023/05/30 10:25:54;;;;;;;26.35;12.70;;;;;;;16.62;54.92;102567.72;5093058;28;20119;-50
2023/05/30 10:28:26;;;;;;;24.40;11.82;;;;;;;16.63;54.53;102572.19;5093420;28;20468;-51
2023/05/30 10:30:52;;;;;;;24.60;12.05;;;;;;;16.56;54.85;102572.56;5092411;28;20063;-49
2023/05/30 10:33:20;;;;;;;23.17;12.20;;;;;;;16.45;54.10;102583.09;5093222;28;20480;-50
2023/05/30 10:35:46;;;;;;;19.88;10.98;;;;;;;16.50;53.79;102563.44;5093192;28;20055;-51
2023/05/30 10:38:13;;;;;;;22.10;11.77;;;;;;;16.50;54.80;102584.97;5088672;28;20032;-50
2023/05/30 10:41:05;;;;;;;25.02;11.55;;;;;;;16.55;53.77;102573.69;5076881;28;20058;-49
2023/05/30 10:43:53;;;;;;;22.80;11.98;;;;;;;16.59;54.90;102559.94;5083061;28;20036;-48
2023/05/30 10:46:29;;;;;;;23.60;12.57;;;;;;;16.77;54.81;102566.63;5089032;28;20066;-50
2023/05/30 10:48:59;;;;;;;21.52;11.30;;;;;;;16.83;53.93;102557.84;5083940;28;20043;-51
2023/05/30 10:51:25;;;;;;;23.25;12.07;;;;;;;16.74;54.35;102570.03;5076333;28;20036;-48
2023/05/30 10:53:51;;;;;;;23.77;11.90;;;;;;;16.57;53.81;102568.63;5083526;28;20031;-50
2023/05/30 10:56:26;;;;;;;23.35;11.98;;;;;;;16.78;53.77;102565.50;5072299;28;20029;-49
2023/05/30 10:58:55;;;;;;;24.02;12.10;;;;;;;16.83;53.24;102551.41;5084618;28;20035;-47
2023/05/30 11:01:28;;;;;;;21.35;11.27;;;;;;;16.99;54.05;102555.63;5072759;28;20048;-49
2023/05/30 11:04:05;;;;;;;20.92;10.43;;;;;;;17.00;52.98;102548.06;5083598;28;20027;-50
2023/05/30 11:06:38;;;;;;;22.90;11.30;;;;;;;17.21;52.51;102542.06;5073155;28;20516;-50
2023/05/30 11:09:05;;;;;;;24.08;11.00;;;;;;;17.44;52.26;102551.41;5080689;28;20476;-50
2023/05/30 11:11:39;;;;;;;23.10;11.20;;;;;;;17.66;51.72;102533.84;5088149;28;20074;-50
2023/05/30 11:14:05;;;;;;;21.30;10.68;;;;;;;17.58;50.98;102538.22;5079937;28;20333;-49
2023/05/30 11:16:31;;;;;;;22.98;11.95;;;;;;;17.48;50.29;102530.03;5081615;28;20028;-47